Terminal Aerodrome Forecast
Issued by NWS Wilmington, OH

Current Version | Previous Version | Graphics & Text | Print | Product List | Glossary On
Versions: 1 2 3 4 5 6 7 8 9 10 11 12 13 14 15
000
FTUS41 KILN 262100 AAA
TAFDAY
TAF AMD
KDAY 262109Z 2621/2718 23005KT P6SM VCTS BKN040CB
     FM270000 23005KT P6SM SCT040
     FM270300 24005KT P6SM VCTS BKN050CB
     FM271000 34005KT P6SM SCT050 SCT100=

USA.gov is the U.S. government's official web portal to all federal, state and local government web resources and services.